createdAt,value
2023-02-06T00:03:45.080Z,9.80
2023-02-06T00:07:49.472Z,9.87
2023-02-06T00:11:52.533Z,10.53
2023-02-06T00:15:55.531Z,10.13
2023-02-06T00:19:58.520Z,10.17
2023-02-06T00:24:03.817Z,10.17
2023-02-06T00:28:06.709Z,9.50
2023-02-06T00:32:09.829Z,9.60
2023-02-06T00:36:12.667Z,9.57
2023-02-06T00:40:17.402Z,10.20
2023-02-06T00:44:21.676Z,9.57
2023-02-06T00:48:24.896Z,9.77
2023-02-06T00:52:27.754Z,9.20
2023-02-06T00:56:31.841Z,9.30
2023-02-06T01:00:34.842Z,9.00
2023-02-06T01:04:37.870Z,9.47
2023-02-06T01:08:40.623Z,10.13
2023-02-06T01:12:45.055Z,9.97
2023-02-06T01:16:47.722Z,10.20
2023-02-06T01:20:50.725Z,11.40
2023-02-06T01:24:53.462Z,12.97
2023-02-06T01:28:57.801Z,13.50
2023-02-06T01:33:00.753Z,13.63
2023-02-06T01:37:03.666Z,14.13
2023-02-06T01:41:07.674Z,12.37
2023-02-06T01:45:43.749Z,12.80
2023-02-06T01:49:50.163Z,13.40
2023-02-06T01:53:55.472Z,13.37
2023-02-06T01:57:58.562Z,14.30
2023-02-06T02:02:01.351Z,14.53
2023-02-06T02:06:08.767Z,13.73
2023-02-06T02:10:11.600Z,13.80
2023-02-06T02:14:16.790Z,14.20
2023-02-06T02:18:39.269Z,13.83
2023-02-06T02:22:58.717Z,13.10
2023-02-06T02:27:34.972Z,12.27
2023-02-06T02:32:02.963Z,11.97
2023-02-06T02:36:10.043Z,12.33
2023-02-06T02:40:19.527Z,12.57
2023-02-06T02:44:27.515Z,12.77
2023-02-06T02:48:32.149Z,11.73
2023-02-06T02:52:36.171Z,12.83
2023-02-06T02:56:39.767Z,13.40
2023-02-06T03:00:45.685Z,13.33
2023-02-06T03:04:50.982Z,12.80
2023-02-06T03:09:00.050Z,12.50
2023-02-06T03:13:06.704Z,11.67
2023-02-06T03:17:12.285Z,12.40
2023-02-06T03:21:17.583Z,11.20
2023-02-06T03:25:26.735Z,11.87
2023-02-06T03:29:32.823Z,12.70
2023-02-06T03:33:38.490Z,12.03
2023-02-06T03:37:41.438Z,13.23
2023-02-06T03:41:46.630Z,12.30
2023-02-06T03:45:50.964Z,12.40
2023-02-06T03:49:54.407Z,12.80
2023-02-06T03:53:57.698Z,13.40
2023-02-06T03:58:04.978Z,11.57
2023-02-06T04:02:07.914Z,11.53
2023-02-06T04:06:10.905Z,11.57
2023-02-06T04:10:13.738Z,10.97
2023-02-06T04:14:17.852Z,11.83
2023-02-06T04:18:20.826Z,12.30
2023-02-06T04:22:23.523Z,13.97
2023-02-06T04:26:26.550Z,12.87
2023-02-06T04:30:30.771Z,12.70
2023-02-06T04:34:34.171Z,13.13
2023-02-06T04:38:37.140Z,13.63
2023-02-06T04:42:39.852Z,13.03
2023-02-06T04:46:44.264Z,13.13
2023-02-06T04:50:47.220Z,13.07
2023-02-06T04:54:49.993Z,12.50
2023-02-06T04:58:52.893Z,12.43
2023-02-06T05:02:57.059Z,13.13
2023-02-06T05:07:00.099Z,13.20
2023-02-06T05:11:03.097Z,13.53
2023-02-06T05:15:06.154Z,13.13
2023-02-06T05:19:10.835Z,14.57
2023-02-06T05:23:13.539Z,12.23
2023-02-06T05:27:16.285Z,11.63
2023-02-06T05:31:20.062Z,11.50
2023-02-06T05:35:25.315Z,12.70
2023-02-06T05:39:28.274Z,12.57
2023-02-06T05:43:31.112Z,12.83
2023-02-06T05:47:33.965Z,11.87
2023-02-06T05:51:38.048Z,12.37
2023-02-06T05:55:40.779Z,12.40
2023-02-06T05:59:43.825Z,11.90
2023-02-06T06:03:46.681Z,12.30
2023-02-06T06:07:51.040Z,12.47
2023-02-06T06:11:53.975Z,13.50
2023-02-06T06:15:57.037Z,13.97
2023-02-06T06:19:59.823Z,15.53
2023-02-06T06:24:04.033Z,15.17
2023-02-06T06:28:07.004Z,16.27
2023-02-06T06:32:10.258Z,15.93
2023-02-06T06:36:14.574Z,15.13
2023-02-06T06:40:19.284Z,13.63
2023-02-06T06:44:22.459Z,15.03
2023-02-06T06:48:25.425Z,14.17
2023-02-06T06:52:28.606Z,13.97
2023-02-06T06:56:32.689Z,13.27
2023-02-06T07:00:35.438Z,13.97
2023-02-06T07:04:38.461Z,12.57
2023-02-06T07:08:42.072Z,12.27
2023-02-06T07:12:46.429Z,13.47
2023-02-06T07:16:49.221Z,13.77
2023-02-06T07:20:52.484Z,12.00
2023-02-06T07:24:55.264Z,12.90
2023-02-06T07:28:59.724Z,13.97
2023-02-06T07:33:02.710Z,12.53
2023-02-06T07:37:05.723Z,13.60
2023-02-06T07:41:08.615Z,14.67
2023-02-06T07:45:12.750Z,14.33
2023-02-06T07:49:15.903Z,13.67
2023-02-06T07:53:18.650Z,14.10
2023-02-06T07:57:21.464Z,13.40
2023-02-06T08:01:26.090Z,14.70
2023-02-06T08:05:29.246Z,13.93
2023-02-06T08:09:32.386Z,14.97
2023-02-06T08:13:36.000Z,15.47
2023-02-06T08:17:42.674Z,15.53
2023-02-06T08:21:45.778Z,16.03
2023-02-06T08:25:48.517Z,17.63
2023-02-06T08:29:51.783Z,16.30
2023-02-06T08:33:56.519Z,14.77
2023-02-06T08:38:00.921Z,13.73
2023-02-06T08:42:06.090Z,13.10
2023-02-06T08:46:08.926Z,14.50
2023-02-06T08:50:13.145Z,14.30
2023-02-06T08:54:17.968Z,14.17
2023-02-06T08:58:20.701Z,13.63
2023-02-06T09:02:23.512Z,13.20
2023-02-06T09:06:28.040Z,13.27
2023-02-06T09:10:30.763Z,13.27
2023-02-06T09:14:35.394Z,13.60
2023-02-06T09:18:38.312Z,14.23
2023-02-06T09:22:44.521Z,13.53
2023-02-06T09:26:59.531Z,14.80
2023-02-06T09:31:03.004Z,12.40
2023-02-06T09:35:06.497Z,12.73
2023-02-06T09:39:11.386Z,13.33
2023-02-06T09:43:14.948Z,12.27
2023-02-06T09:47:22.934Z,11.93
2023-02-06T09:51:33.454Z,11.53
2023-02-06T09:55:41.367Z,11.87
2023-02-06T09:59:47.271Z,11.33
2023-02-06T10:04:05.157Z,11.33
2023-02-06T10:08:15.721Z,12.13
2023-02-06T10:12:24.795Z,11.83
2023-02-06T10:16:36.381Z,10.70
2023-02-06T10:20:42.106Z,11.33
2023-02-06T10:24:48.372Z,11.50
2023-02-06T10:28:55.910Z,12.03
2023-02-06T10:33:02.956Z,12.13
2023-02-06T10:37:25.713Z,11.00
2023-02-06T10:41:35.408Z,17.50
2023-02-06T10:45:44.970Z,11.60
2023-02-06T10:49:49.730Z,10.47
2023-02-06T10:53:55.848Z,11.03
2023-02-06T10:58:13.401Z,10.67
2023-02-06T11:02:23.527Z,10.80
2023-02-06T11:06:28.351Z,11.50
2023-02-06T11:10:32.263Z,10.80
2023-02-06T11:14:38.114Z,9.53
2023-02-06T11:18:45.391Z,10.83
2023-02-06T11:22:53.125Z,21.30
2023-02-06T11:26:58.531Z,9.00
2023-02-06T11:31:03.374Z,6.97
2023-02-06T11:35:17.183Z,7.03
2023-02-06T11:39:27.568Z,7.47
2023-02-06T11:43:33.901Z,8.50
2023-02-06T11:47:38.298Z,8.50
2023-02-06T11:51:51.554Z,8.67
2023-02-06T11:56:03.367Z,9.07
2023-02-06T12:00:21.081Z,8.20
2023-02-06T12:04:25.930Z,8.00
2023-02-06T12:08:37.556Z,8.30
2023-02-06T12:12:43.235Z,9.17
2023-02-06T12:16:46.646Z,10.03
2023-02-06T12:20:53.193Z,10.73
2023-02-06T12:25:00.185Z,8.80
2023-02-06T12:29:06.110Z,9.70
2023-02-06T12:33:14.276Z,11.13
2023-02-06T12:37:21.499Z,9.57
2023-02-06T12:41:36.309Z,8.47
2023-02-06T12:45:44.850Z,7.90
2023-02-06T12:49:53.760Z,6.93
2023-02-06T12:53:59.437Z,6.73
2023-02-06T12:58:04.626Z,7.17
2023-02-06T13:02:18.357Z,7.30
2023-02-06T13:06:22.678Z,8.33
2023-02-06T13:10:27.192Z,8.10
2023-02-06T13:14:31.450Z,8.03
2023-02-06T13:18:54.670Z,7.30
2023-02-06T13:23:23.863Z,6.90
2023-02-06T13:27:28.561Z,6.83
2023-02-06T13:31:35.333Z,7.10
2023-02-06T13:35:55.949Z,7.17
2023-02-06T13:40:20.744Z,6.73
2023-02-06T13:44:27.633Z,6.53
2023-02-06T13:49:05.364Z,7.60
2023-02-06T13:53:40.872Z,7.10
2023-02-06T13:57:54.835Z,7.50
2023-02-06T14:01:57.813Z,8.03
2023-02-06T14:06:09.358Z,8.77
2023-02-06T14:10:30.399Z,7.60
2023-02-06T14:14:45.014Z,8.47
2023-02-06T14:18:52.362Z,7.73
2023-02-06T14:23:05.769Z,9.57
2023-02-06T14:27:21.275Z,7.30
2023-02-06T14:31:36.289Z,8.10
2023-02-06T14:35:47.978Z,7.77
2023-02-06T14:39:53.202Z,7.70
2023-02-06T14:43:56.010Z,7.80
2023-02-06T14:48:01.565Z,7.87
2023-02-06T14:52:06.527Z,7.03
2023-02-06T14:56:16.571Z,7.40
2023-02-06T15:00:21.369Z,7.63
2023-02-06T15:04:26.015Z,7.53
2023-02-06T15:08:28.838Z,7.70
2023-02-06T15:12:33.825Z,7.57
2023-02-06T15:16:46.740Z,8.40
2023-02-06T15:20:54.484Z,7.73
2023-02-06T15:25:16.150Z,7.20
2023-02-06T15:29:23.365Z,6.87
2023-02-06T15:33:28.092Z,6.60
2023-02-06T15:37:32.845Z,6.90
2023-02-06T15:41:36.360Z,7.17
2023-02-06T15:45:41.843Z,6.73
2023-02-06T15:49:47.026Z,6.03
2023-02-06T15:53:51.038Z,6.80
2023-02-06T15:57:54.362Z,6.27
2023-02-06T16:01:59.500Z,6.80
2023-02-06T16:06:02.340Z,7.33
2023-02-06T16:10:18.982Z,8.77
2023-02-06T16:14:25.463Z,10.90
2023-02-06T16:18:32.315Z,12.37
2023-02-06T16:22:37.772Z,7.77
2023-02-06T16:26:47.061Z,6.80
2023-02-06T16:30:55.546Z,6.73
2023-02-06T16:35:01.373Z,7.20
2023-02-06T16:39:04.899Z,6.57
2023-02-06T16:43:10.112Z,7.80
2023-02-06T16:47:15.677Z,7.40
2023-02-06T16:51:21.808Z,6.60
2023-02-06T16:55:27.205Z,5.97
2023-02-06T16:59:29.982Z,5.90
2023-02-06T17:03:33.108Z,5.97
2023-02-06T17:07:37.842Z,6.40
2023-02-06T17:11:40.603Z,6.53
2023-02-06T17:15:43.774Z,5.80
2023-02-06T17:19:47.235Z,6.43
2023-02-06T17:23:52.545Z,6.47
2023-02-06T17:27:56.541Z,8.27
2023-02-06T17:32:00.028Z,7.27
2023-02-06T17:36:03.352Z,7.70
2023-02-06T17:40:08.817Z,10.30
2023-02-06T17:44:12.495Z,10.10
2023-02-06T17:48:15.932Z,6.87
2023-02-06T17:52:19.260Z,7.57
2023-02-06T17:56:23.664Z,5.83
2023-02-06T18:00:26.921Z,6.07
2023-02-06T18:04:30.042Z,5.50
2023-02-06T18:08:33.126Z,5.47
2023-02-06T18:12:39.726Z,4.70
2023-02-06T18:16:42.915Z,4.97
2023-02-06T18:20:45.849Z,4.70
2023-02-06T18:24:49.608Z,4.10
2023-02-06T18:28:53.872Z,4.20
2023-02-06T18:32:56.953Z,4.20
2023-02-06T18:36:59.714Z,4.57
2023-02-06T18:41:04.111Z,4.83
2023-02-06T18:45:09.447Z,3.53
2023-02-06T18:49:12.393Z,2.90
2023-02-06T18:53:15.926Z,3.63
2023-02-06T18:57:18.734Z,3.53
2023-02-06T19:01:24.283Z,3.87
2023-02-06T19:05:29.013Z,10.23
2023-02-06T19:09:31.871Z,7.77
2023-02-06T19:13:35.227Z,4.10
2023-02-06T19:17:39.526Z,6.73
2023-02-06T19:21:44.117Z,7.07
2023-02-06T19:25:46.994Z,5.00
2023-02-06T19:29:50.129Z,15.90
2023-02-06T19:33:55.988Z,14.43
2023-02-06T19:38:00.502Z,4.40
2023-02-06T19:42:06.391Z,7.00
2023-02-06T19:46:12.185Z,5.90
2023-02-06T19:50:23.788Z,5.90
2023-02-06T19:54:27.082Z,6.07
2023-02-06T19:58:31.437Z,6.70
2023-02-06T20:02:34.256Z,4.90
2023-02-06T20:06:38.528Z,5.70
2023-02-06T20:10:41.428Z,6.40
2023-02-06T20:14:44.215Z,4.73
2023-02-06T20:18:47.077Z,5.00
2023-02-06T20:22:52.001Z,5.90
2023-02-06T20:26:57.367Z,5.70
2023-02-06T20:31:01.583Z,5.70
2023-02-06T20:35:04.417Z,6.30
2023-02-06T20:39:09.108Z,5.43
2023-02-06T20:43:12.158Z,5.90
2023-02-06T20:47:14.933Z,5.87
2023-02-06T20:51:17.689Z,6.77
2023-02-06T20:55:21.813Z,7.83
2023-02-06T20:59:24.597Z,7.93
2023-02-06T21:03:27.921Z,7.03
2023-02-06T21:07:30.997Z,8.50
2023-02-06T21:11:36.957Z,8.63
2023-02-06T21:15:39.704Z,5.63
2023-02-06T21:19:42.699Z,4.80
2023-02-06T21:23:45.662Z,4.97
2023-02-06T21:27:49.880Z,5.00
2023-02-06T21:32:07.242Z,4.77
2023-02-06T21:36:15.325Z,5.57
2023-02-06T21:40:18.319Z,5.33
2023-02-06T21:44:24.118Z,6.77
2023-02-06T21:48:27.419Z,7.37
2023-02-06T21:52:30.510Z,22.00
2023-02-06T21:56:33.333Z,7.17
2023-02-06T22:00:37.708Z,8.20
2023-02-06T22:04:40.520Z,6.77
2023-02-06T22:08:45.188Z,7.57
2023-02-06T22:12:49.591Z,6.93
2023-02-06T22:16:54.123Z,6.63
2023-02-06T22:21:04.429Z,7.33
2023-02-06T22:25:08.055Z,7.13
2023-02-06T22:29:13.337Z,7.77
2023-02-06T22:33:17.426Z,8.33
2023-02-06T22:37:20.138Z,8.17
2023-02-06T22:41:23.132Z,8.37
2023-02-06T22:45:25.888Z,7.50
2023-02-06T22:49:30.391Z,8.00
2023-02-06T22:53:33.462Z,8.30
2023-02-06T22:57:37.234Z,8.30
2023-02-06T23:01:42.000Z,8.07
2023-02-06T23:05:46.408Z,7.50
2023-02-06T23:09:49.271Z,8.53
2023-02-06T23:13:53.746Z,8.13
2023-02-06T23:17:56.463Z,9.00
2023-02-06T23:22:00.573Z,8.20
2023-02-06T23:26:03.335Z,8.63
2023-02-06T23:30:06.620Z,8.43
2023-02-06T23:34:09.640Z,8.87
2023-02-06T23:38:13.858Z,9.23
2023-02-06T23:42:16.711Z,8.90
2023-02-06T23:46:20.386Z,9.53
2023-02-06T23:50:23.497Z,9.23
2023-02-06T23:54:27.597Z,9.20
2023-02-06T23:58:30.321Z,9.37
